Bookmark and Share
Track history (hours):
 

Sankoumaru 31

Last reported at 2014-Apr-18 16:07 UTC. Time now 2014-Apr-20 15:54 UTC.
Position N 34°56' E 139°22'.

Length 75 m; draft 4.2 m.

Type: Cargo ship. MMSI: 431501842.

NotesDate/timePositionNaut miles runAvg speedWind from/ knotsBaromVisibWave heightAir tempDewpointWater temp
2014-Apr-18 16:07N 34°56' E 139°22'713.0
2014-Apr-18 15:33N 35°01' E 139°30'1312.7
2014-Apr-18 14:33N 35°08' E 139°42'1111.4
2014-Apr-18 13:34N 35°19' E 139°43'6 6.4
2014-Apr-18 12:33N 35°22' E 139°50'1 1.2
2014-Apr-18 11:32N 35°22' E 139°51'0 0.0
2014-Apr-18 10:32N 35°22' E 139°51'0 0.0
2014-Apr-18 09:32N 35°22' E 139°51'0 0.0
2014-Apr-18 08:32N 35°22' E 139°51'2 1.9
2014-Apr-18 07:33N 35°22' E 139°53'0 0.0
2014-Apr-18 06:33N 35°22' E 139°53'0 0.0
2014-Apr-18 05:33N 35°22' E 139°53'0 0.0
2014-Apr-18 04:33N 35°22' E 139°53'0 0.0
2014-Apr-18 03:33N 35°22' E 139°53'0 0.0
2014-Apr-18 02:33N 35°22' E 139°53'0 0.0
2014-Apr-18 01:30N 35°22' E 139°53'0 0.0
2014-Apr-18 00:30N 35°22' E 139°53'1 0.7
2014-Apr-17 23:33N 35°22' E 139°53'0 0.0
2014-Apr-17 22:30N 35°22' E 139°53'0 0.0
2014-Apr-17 21:33N 35°22' E 139°53'0 0.0
2014-Apr-17 20:27N 35°22' E 139°53'0 0.1
2014-Apr-17 19:30N 35°22' E 139°53'0 0.0
2014-Apr-17 18:30N 35°22' E 139°53'0 0.0
2014-Apr-17 17:30N 35°22' E 139°53'0 0.0
2014-Apr-17 16:33N 35°22' E 139°53'0 0.1
2014-Apr-17 15:33N 35°22' E 139°53'0 0.0
2014-Apr-17 14:33N 35°22' E 139°53'0 0.0
2014-Apr-17 13:33N 35°22' E 139°53'0 0.0
2014-Apr-17 12:33N 35°22' E 139°53'0 0.0
2014-Apr-17 11:33N 35°22' E 139°53'0 0.2
2014-Apr-17 10:34N 35°22' E 139°53'10 9.5
2014-Apr-17 09:33N 35°32' E 139°53'1010.0
2014-Apr-17 08:34N 35°41' E 139°57'0 0.0
2014-Apr-17 07:25N 35°41' E 139°57'0 0.0
2014-Apr-17 06:28N 35°41' E 139°57'0 0.0
2014-Apr-17 05:31N 35°41' E 139°57'2 2.2
2014-Apr-17 04:33N 35°39' E 139°58'1211.5
2014-Apr-17 03:33N 35°29' E 139°51'1211.6
2014-Apr-17 02:33N 35°19' E 139°44'1010.4
2014-Apr-17 01:33N 35°09' E 139°45'1111.2
2014-Apr-17 00:33N 35°01' E 139°35'24310.4
2014-Apr-16 01:10N 34°05' E 134°48'  
2014-Apr-11 18:04N 34°51' E 139°42'1811.3
2014-Apr-11 16:28N 34°56' E 140°03'2511.1
2014-Apr-11 14:10N 35°13' E 140°27'46 9.0
2014-Apr-11 09:05N 35°57' E 140°42'2 0.2
2014-Apr-10 21:04N 35°56' E 140°40'2 1.3
2014-Apr-10 19:11N 35°57' E 140°42'0 0.0
2014-Apr-10 18:21N 35°57' E 140°42'1 0.0
2014-Apr-09 05:30N 35°57' E 140°42'2 0.3
2014-Apr-08 22:30N 35°56' E 140°40'0 0.0
2014-Apr-08 21:30N 35°56' E 140°40'0 0.0
2014-Apr-08 20:27N 35°56' E 140°40'0 0.0
2014-Apr-08 19:18N 35°56' E 140°40'0 0.0
2014-Apr-08 18:30N 35°56' E 140°40'0 0.0
2014-Apr-08 17:24N 35°56' E 140°40'0 0.0
2014-Apr-08 16:33N 35°56' E 140°40'  

Dump ship's entire track history

sailing weather and tide predictions

Sankoumaru 31 — JD2200 — position and weather